createdAt,value
2023-04-09T00:01:13.923Z,100244.94
2023-04-09T00:03:41.194Z,100233.44
2023-04-09T00:06:08.313Z,100229.81
2023-04-09T00:08:35.488Z,100225.34
2023-04-09T00:11:02.678Z,100221.72
2023-04-09T00:15:59.754Z,100210.34
2023-04-09T00:18:26.816Z,100193.91
2023-04-09T00:20:53.966Z,100190.28
2023-04-09T00:23:21.304Z,100189.44
2023-04-09T00:25:48.494Z,100183.72
2023-04-09T00:28:16.274Z,100177.69
2023-04-09T00:30:44.057Z,100167.03
2023-04-09T00:33:11.248Z,100165.31
2023-04-09T00:35:38.403Z,100165.59
2023-04-09T00:38:05.609Z,100159.53
2023-04-09T00:40:33.004Z,100161.34
2023-04-09T00:43:01.136Z,100148.91
2023-04-09T00:45:28.369Z,100137.66
2023-04-09T00:47:55.709Z,100131.50
2023-04-09T00:50:23.016Z,100129.06
2023-04-09T00:52:50.208Z,100119.28
2023-04-09T00:55:18.226Z,100115.66
2023-04-09T00:57:45.358Z,100122.78
2023-04-09T01:00:13.168Z,100106.22
2023-04-09T01:02:40.963Z,100106.09
2023-04-09T01:05:08.707Z,100103.56
2023-04-09T01:07:43.073Z,100098.22
2023-04-09T01:10:13.993Z,100086.75
2023-04-09T01:13:00.645Z,100091.09
2023-04-09T01:15:30.106Z,100068.84
2023-04-09T01:18:10.099Z,100072.47
2023-04-09T01:20:42.301Z,100065.72
2023-04-09T01:23:25.840Z,100064.75
2023-04-09T01:25:54.132Z,100048.78
2023-04-09T01:28:31.835Z,100053.63
2023-04-09T01:31:06.066Z,100053.63
2023-04-09T01:33:34.012Z,100050.00
2023-04-09T01:36:01.653Z,100052.91
2023-04-09T01:38:29.069Z,100056.28
2023-04-09T01:40:57.463Z,100057.97
2023-04-09T01:43:26.161Z,100056.16
2023-04-09T01:45:54.199Z,100047.72
2023-04-09T01:48:22.551Z,100045.56
2023-04-09T01:50:50.467Z,100035.28
2023-04-09T01:53:17.731Z,100037.25
2023-04-09T01:55:44.923Z,100037.25
2023-04-09T01:58:12.312Z,100030.81
2023-04-09T02:00:42.843Z,100036.72
2023-04-09T02:03:09.996Z,100035.78
2023-04-09T02:05:46.294Z,100033.69
2023-04-09T02:08:18.329Z,100021.75
2023-04-09T02:10:53.157Z,100024.91
2023-04-09T02:13:20.968Z,100015.72
2023-04-09T02:15:49.070Z,100018.50
2023-04-09T02:18:22.918Z,100022.25
2023-04-09T02:20:50.516Z,100022.88
2023-04-09T02:23:17.627Z,100014.66
2023-04-09T02:25:44.797Z,100023.59
2023-04-09T02:28:12.018Z,100018.03
2023-04-09T02:30:39.247Z,100011.53
2023-04-09T02:33:06.327Z,100000.78
2023-04-09T02:35:33.808Z,99997.66
2023-04-09T02:38:01.263Z,99991.13
2023-04-09T02:40:28.565Z,99978.09
2023-04-09T02:42:55.707Z,99986.53
2023-04-09T02:45:22.825Z,99989.69
2023-04-09T02:47:50.059Z,100001.63
2023-04-09T02:50:17.215Z,100030.38
2023-04-09T02:52:49.286Z,100032.91
2023-04-09T02:55:16.985Z,100029.56
2023-04-09T02:57:44.219Z,100032.22
2023-04-09T03:00:11.714Z,100038.22
2023-04-09T03:02:39.074Z,100034.50
2023-04-09T03:05:06.612Z,100023.13
2023-04-09T03:07:33.684Z,100019.38
2023-04-09T03:10:00.841Z,100016.97
2023-04-09T03:12:27.901Z,100010.31
2023-04-09T03:14:54.986Z,99990.16
2023-04-09T03:17:22.173Z,99991.25
2023-04-09T03:19:49.254Z,99987.88
2023-04-09T03:22:16.660Z,99996.22
2023-04-09T03:24:43.713Z,99996.09
2023-04-09T03:27:10.809Z,99995.25
2023-04-09T03:29:37.933Z,99986.19
2023-04-09T03:32:07.190Z,99978.56
2023-04-09T03:34:34.357Z,99989.69
2023-04-09T03:37:01.587Z,99986.53
2023-04-09T03:39:31.542Z,99972.66
2023-04-09T03:41:58.983Z,99981.13
2023-04-09T03:44:30.299Z,99963.59
2023-04-09T03:47:07.322Z,99967.84
2023-04-09T03:49:36.177Z,99968.44
2023-04-09T03:52:12.968Z,99967.13
2023-04-09T03:54:44.060Z,99971.56
2023-04-09T03:57:16.454Z,99964.31
2023-04-09T03:59:46.215Z,99984.84
2023-04-09T04:02:17.339Z,99988.25
2023-04-09T04:04:49.049Z,99987.28
2023-04-09T04:07:16.728Z,99986.31
2023-04-09T04:09:55.500Z,99972.44
2023-04-09T04:12:22.604Z,99981.25
2023-04-09T04:15:00.981Z,99970.00
2023-04-09T04:17:40.325Z,99968.19
2023-04-09T04:20:14.994Z,99953.59
2023-04-09T04:22:53.877Z,99946.22
2023-04-09T04:25:22.596Z,99952.63
2023-04-09T04:27:50.429Z,99955.16
2023-04-09T04:30:19.931Z,99967.69
2023-04-09T04:32:57.887Z,99956.84
2023-04-09T04:35:26.207Z,99957.56
2023-04-09T04:37:57.049Z,99969.16
2023-04-09T04:40:26.115Z,99966.38
2023-04-09T04:42:58.591Z,99954.78
2023-04-09T04:45:26.087Z,99963.47
2023-04-09T04:47:58.143Z,99958.03
2023-04-09T04:50:25.452Z,99964.31
2023-04-09T04:52:57.950Z,99952.25
2023-04-09T04:55:28.830Z,99953.09
2023-04-09T04:57:56.357Z,99964.78
2023-04-09T05:00:26.873Z,99958.16
2023-04-09T05:02:55.552Z,99975.78
2023-04-09T05:05:39.123Z,99974.56
2023-04-09T05:08:06.952Z,100003.66
2023-04-09T05:10:34.120Z,100026.59
2023-04-09T05:13:01.208Z,100039.44
2023-04-09T05:15:33.824Z,100063.81
2023-04-09T05:18:01.435Z,100071.06
2023-04-09T05:20:28.866Z,100133.06
2023-04-09T05:23:04.722Z,100122.44
2023-04-09T05:25:37.151Z,100137.69
2023-04-09T05:28:04.760Z,100185.56
2023-04-09T05:30:33.851Z,100180.09
2023-04-09T05:33:03.895Z,100167.41
2023-04-09T05:35:32.349Z,100163.69
2023-04-09T05:38:00.458Z,100157.63
2023-04-09T05:40:27.557Z,100235.97
2023-04-09T05:42:55.029Z,100227.88
2023-04-09T05:45:36.022Z,100232.66
2023-04-09T05:48:03.195Z,100264.78
2023-04-09T05:50:31.032Z,100307.63
2023-04-09T05:53:00.246Z,100259.22
2023-04-09T05:55:34.762Z,100221.13
2023-04-09T05:58:02.882Z,100288.13
2023-04-09T06:00:30.102Z,100298.78
2023-04-09T06:02:57.216Z,100237.25
2023-04-09T06:05:24.347Z,100232.38
2023-04-09T06:07:52.137Z,100237.69
2023-04-09T06:10:19.611Z,100230.72
2023-04-09T06:12:48.131Z,100206.56
2023-04-09T06:15:15.609Z,100217.34
2023-04-09T06:17:42.674Z,100223.72
2023-04-09T06:20:10.000Z,100206.19
2023-04-09T06:22:37.211Z,100221.16
2023-04-09T06:25:04.396Z,100226.16
2023-04-09T06:27:31.723Z,100196.88
2023-04-09T06:29:58.776Z,100195.50
2023-04-09T06:32:25.821Z,100199.66
2023-04-09T06:34:52.932Z,100142.69
2023-04-09T06:37:20.047Z,100138.69
2023-04-09T06:39:58.102Z,100113.84
2023-04-09T06:42:28.259Z,100120.25
2023-04-09T06:45:08.655Z,100075.34
2023-04-09T06:47:36.379Z,100046.88
2023-04-09T06:50:03.896Z,100070.59
2023-04-09T06:52:31.063Z,100016.97
2023-04-09T06:54:58.203Z,99989.31
2023-04-09T06:57:26.322Z,99979.16
2023-04-09T06:59:53.500Z,99925.22
2023-04-09T07:02:20.648Z,99882.69
2023-04-09T07:04:47.950Z,99867.34
2023-04-09T07:07:15.451Z,99880.03
2023-04-09T07:09:42.853Z,99669.56
2023-04-09T07:12:10.082Z,99678.06
2023-04-09T07:14:37.198Z,99656.38
2023-04-09T07:17:04.309Z,99502.19
2023-04-09T07:19:31.627Z,99448.84
2023-04-09T07:21:58.704Z,99308.84
2023-04-09T07:24:25.909Z,99257.97
2023-04-09T07:26:53.884Z,99184.03
2023-04-09T07:29:22.368Z,99027.31
2023-04-09T07:31:49.610Z,99063.22
2023-04-09T07:34:16.919Z,98980.16
2023-04-09T07:36:44.123Z,98987.53
2023-04-09T07:39:11.276Z,98909.25
2023-04-09T07:41:38.309Z,98827.41
2023-04-09T07:44:06.407Z,98838.13
2023-04-09T07:46:33.685Z,98790.13
2023-04-09T07:49:00.846Z,98670.72
2023-04-09T07:51:28.093Z,98675.88
2023-04-09T07:53:55.367Z,98646.69
2023-04-09T07:56:22.579Z,98628.34
2023-04-09T07:58:50.777Z,98561.53
2023-04-09T08:01:18.025Z,98498.84
2023-04-09T08:03:45.482Z,98549.50
2023-04-09T08:06:12.699Z,98445.94
2023-04-09T08:08:39.860Z,98379.72
2023-04-09T08:11:07.300Z,98246.41
2023-04-09T08:13:34.651Z,98178.09
2023-04-09T08:16:02.319Z,98092.06
2023-04-09T08:18:29.587Z,98036.81
2023-04-09T08:20:57.192Z,97893.41
2023-04-09T08:23:24.438Z,97906.88
2023-04-09T08:25:51.476Z,97911.31
2023-04-09T08:28:18.548Z,97931.53
2023-04-09T08:30:47.728Z,97839.53
2023-04-09T08:33:14.968Z,97839.75
2023-04-09T08:35:42.559Z,97713.66
2023-04-09T08:38:09.677Z,97682.38
2023-04-09T08:40:36.920Z,97683.16
2023-04-09T08:43:08.937Z,97533.53
2023-04-09T08:45:36.564Z,97546.31
2023-04-09T08:48:05.108Z,97570.81
2023-04-09T08:50:34.163Z,97408.66
2023-04-09T08:53:02.874Z,97341.91
2023-04-09T08:55:31.278Z,97316.84
2023-04-09T08:57:58.548Z,97279.66
2023-04-09T09:00:26.232Z,97260.53
2023-04-09T09:03:06.979Z,97173.88
2023-04-09T09:05:38.647Z,97104.16
2023-04-09T09:08:07.417Z,97107.66
2023-04-09T09:10:42.000Z,96944.63
2023-04-09T09:13:25.231Z,96934.97
2023-04-09T09:16:12.050Z,96976.63
2023-04-09T09:18:40.488Z,96919.75
2023-04-09T09:21:11.896Z,96973.22
2023-04-09T09:23:39.158Z,96922.81
2023-04-09T09:26:16.729Z,96739.13
2023-04-09T09:28:48.409Z,96787.78
2023-04-09T09:31:16.470Z,96474.91
2023-04-09T09:33:44.667Z,96644.97
2023-04-09T09:36:12.107Z,96540.94
2023-04-09T09:38:52.422Z,96434.59
2023-04-09T09:41:20.128Z,96389.00
2023-04-09T09:43:47.833Z,96271.38
2023-04-09T09:46:15.625Z,96258.81
2023-04-09T09:48:42.931Z,96214.41
2023-04-09T09:51:11.116Z,96191.25
2023-04-09T09:53:39.097Z,96204.75
2023-04-09T09:56:06.776Z,96243.25
2023-04-09T09:58:38.861Z,96205.63
2023-04-09T10:01:11.283Z,96293.03
2023-04-09T10:03:39.696Z,96209.81
2023-04-09T10:06:12.668Z,96129.38
2023-04-09T10:08:41.109Z,96072.19
2023-04-09T10:11:08.778Z,96150.44
2023-04-09T10:13:37.887Z,96105.78
2023-04-09T10:16:07.188Z,96054.59
2023-04-09T10:18:34.843Z,96138.00
2023-04-09T10:21:07.895Z,96051.63
2023-04-09T10:23:38.960Z,96006.19
2023-04-09T10:26:06.332Z,96010.50
2023-04-09T10:28:33.883Z,95952.22
2023-04-09T10:31:01.332Z,95970.50
2023-04-09T10:33:29.227Z,95999.56
2023-04-09T10:36:00.840Z,96032.00
2023-04-09T10:38:41.268Z,95968.81
2023-04-09T10:41:08.348Z,95957.19
2023-04-09T10:43:38.541Z,95864.78
2023-04-09T10:46:07.666Z,95887.94
2023-04-09T10:48:35.186Z,95877.97
2023-04-09T10:51:04.058Z,95906.44
2023-04-09T10:53:33.410Z,95876.78
2023-04-09T10:56:01.305Z,95817.44
2023-04-09T10:58:28.391Z,95823.72
2023-04-09T11:00:55.745Z,95767.66
2023-04-09T11:03:27.493Z,95767.00
2023-04-09T11:06:09.375Z,95718.63
2023-04-09T11:08:38.479Z,95689.56
2023-04-09T11:11:05.921Z,95720.06
2023-04-09T11:13:34.109Z,95698.28
2023-04-09T11:16:04.073Z,95650.56
2023-04-09T11:18:33.853Z,95617.38
2023-04-09T11:21:02.197Z,95614.66
2023-04-09T11:23:29.493Z,95614.28
2023-04-09T11:25:56.768Z,95598.53
2023-04-09T11:28:24.617Z,95587.91
2023-04-09T11:30:52.000Z,95598.63
2023-04-09T11:33:20.325Z,95602.94
2023-04-09T11:35:48.178Z,95554.84
2023-04-09T11:38:15.597Z,95546.34
2023-04-09T11:40:50.248Z,95529.03
2023-04-09T11:43:17.890Z,95506.03
2023-04-09T11:45:48.125Z,95515.06
2023-04-09T11:48:18.398Z,95529.25
2023-04-09T11:50:46.602Z,95544.34
2023-04-09T11:53:20.252Z,95561.13
2023-04-09T11:55:51.352Z,95555.44
2023-04-09T11:58:19.101Z,95562.28
2023-04-09T12:00:46.202Z,95540.38
2023-04-09T12:03:16.202Z,95558.31
2023-04-09T12:05:50.690Z,95585.56
2023-04-09T12:08:23.483Z,95598.00
2023-04-09T12:10:54.296Z,95608.59
2023-04-09T12:13:21.682Z,95635.28
2023-04-09T12:15:52.475Z,95635.91
2023-04-09T12:18:21.530Z,95651.03
2023-04-09T12:20:49.764Z,95650.94
2023-04-09T12:23:16.932Z,95650.59
2023-04-09T12:25:45.403Z,95655.81
2023-04-09T12:28:18.274Z,95659.06
2023-04-09T12:30:46.330Z,95663.41
2023-04-09T12:33:13.556Z,95664.78
2023-04-09T12:35:40.955Z,95680.25
2023-04-09T12:38:08.192Z,95677.78
2023-04-09T12:40:36.203Z,95682.56
2023-04-09T12:43:03.371Z,95688.97
2023-04-09T12:45:30.870Z,95682.59
2023-04-09T12:47:58.427Z,95699.19
2023-04-09T12:50:25.684Z,95676.50
2023-04-09T12:52:52.859Z,95673.47
2023-04-09T12:55:22.699Z,95644.69
2023-04-09T12:57:50.408Z,95620.03
2023-04-09T13:00:17.668Z,95591.91
2023-04-09T13:02:45.082Z,95599.38
2023-04-09T13:05:12.370Z,95586.22
2023-04-09T13:07:41.515Z,95580.72
2023-04-09T13:10:10.073Z,95580.41
2023-04-09T13:12:37.539Z,95557.72
2023-04-09T13:15:05.019Z,95555.06
2023-04-09T13:17:32.150Z,95558.63
2023-04-09T13:19:59.340Z,95543.44
2023-04-09T13:22:26.501Z,95530.78
2023-04-09T13:24:53.613Z,95528.16
2023-04-09T13:27:20.812Z,95507.25
2023-04-09T13:29:47.984Z,95498.97
2023-04-09T13:32:16.804Z,95478.31
2023-04-09T13:34:44.906Z,95497.34
2023-04-09T13:37:16.776Z,95509.19
2023-04-09T13:39:44.743Z,95496.81
2023-04-09T13:42:13.947Z,95499.44
2023-04-09T13:44:44.666Z,95503.72
2023-04-09T13:47:13.248Z,95486.59
2023-04-09T13:49:41.437Z,95482.56
2023-04-09T13:52:09.035Z,95485.19
2023-04-09T13:54:36.313Z,95484.81
2023-04-09T13:57:05.093Z,95479.00
2023-04-09T13:59:32.218Z,95484.91
2023-04-09T14:02:02.369Z,95486.56
2023-04-09T14:04:29.621Z,95500.25
2023-04-09T14:06:57.795Z,95510.81
2023-04-09T14:09:24.921Z,95517.69
2023-04-09T14:11:51.981Z,95518.34
2023-04-09T14:14:19.923Z,95504.28
2023-04-09T14:16:48.324Z,95498.63
2023-04-09T14:19:15.481Z,95513.34
2023-04-09T14:21:42.590Z,95522.78
2023-04-09T14:24:09.733Z,95513.97
2023-04-09T14:26:37.320Z,95526.75
2023-04-09T14:29:04.410Z,95521.63
2023-04-09T14:31:31.536Z,95516.16
2023-04-09T14:33:58.628Z,95527.72
2023-04-09T14:36:27.312Z,95526.00
2023-04-09T14:38:57.397Z,95540.50
2023-04-09T14:41:25.273Z,95537.22
2023-04-09T14:43:52.586Z,95547.50
2023-04-09T14:46:20.273Z,95537.59
2023-04-09T14:48:47.437Z,95529.16
2023-04-09T14:51:14.593Z,95534.47
2023-04-09T14:53:41.639Z,95532.19
2023-04-09T14:56:08.784Z,95534.78
2023-04-09T14:58:38.039Z,95556.88
2023-04-09T15:01:05.373Z,95549.91
2023-04-09T15:03:32.836Z,95554.91
2023-04-09T15:06:00.085Z,95557.06
2023-04-09T15:08:27.395Z,95551.22
2023-04-09T15:10:54.510Z,95549.47
2023-04-09T15:13:21.655Z,95559.66
2023-04-09T15:15:48.828Z,95585.13
2023-04-09T15:18:16.134Z,95604.28
2023-04-09T15:20:45.959Z,95625.84
2023-04-09T15:23:13.212Z,95636.56
2023-04-09T15:25:40.259Z,95654.06
2023-04-09T15:28:07.415Z,95663.66
2023-04-09T15:30:35.755Z,95675.78
2023-04-09T15:33:04.356Z,95691.91
2023-04-09T15:35:31.738Z,95696.47
2023-04-09T15:37:58.956Z,95701.03
2023-04-09T15:40:26.124Z,95698.91
2023-04-09T15:42:53.377Z,95716.59
2023-04-09T15:45:20.631Z,95714.75
2023-04-09T15:47:47.847Z,95708.56
2023-04-09T15:50:15.054Z,95715.53
2023-04-09T15:52:42.306Z,95714.97
2023-04-09T15:55:09.527Z,95717.66
2023-04-09T15:57:38.249Z,95703.72
2023-04-09T16:00:07.810Z,95701.84
2023-04-09T16:02:36.837Z,95698.63
2023-04-09T16:05:04.199Z,95683.84
2023-04-09T16:07:31.673Z,95671.25
2023-04-09T16:10:00.290Z,95665.63
2023-04-09T16:12:27.809Z,95657.03
2023-04-09T16:14:54.988Z,95643.88
2023-04-09T16:17:22.158Z,95639.88
2023-04-09T16:19:49.245Z,95634.25
2023-04-09T16:22:16.725Z,95637.47
2023-04-09T16:24:43.828Z,95641.75
2023-04-09T16:27:13.040Z,95633.94
2023-04-09T16:29:40.142Z,95633.19
2023-04-09T16:32:07.250Z,95633.97
2023-04-09T16:34:34.428Z,95638.53
2023-04-09T16:37:01.577Z,95633.97
2023-04-09T16:39:28.974Z,95635.56
2023-04-09T16:41:58.231Z,95640.69
2023-04-09T16:44:25.915Z,95640.41
2023-04-09T16:46:53.018Z,95628.59
2023-04-09T16:49:20.117Z,95624.84
2023-04-09T16:51:47.323Z,95612.25
2023-04-09T16:54:14.404Z,95611.69
2023-04-09T16:56:41.762Z,95606.09
2023-04-09T16:59:08.869Z,95620.53
2023-04-09T17:01:36.092Z,95630.97
2023-04-09T17:04:03.633Z,95630.16
2023-04-09T17:06:30.953Z,95633.91
2023-04-09T17:08:58.034Z,95638.44
2023-04-09T17:11:25.269Z,95642.19
2023-04-09T17:13:52.338Z,95645.66
2023-04-09T17:16:19.473Z,95648.84
2023-04-09T17:18:47.097Z,95650.97
2023-04-09T17:21:14.233Z,95671.09
2023-04-09T17:23:42.784Z,95679.94
2023-04-09T17:26:09.829Z,95682.06
2023-04-09T17:28:36.996Z,95684.47
2023-04-09T17:31:11.976Z,95692.97
2023-04-09T17:33:39.360Z,95700.19
2023-04-09T17:36:07.093Z,95711.66
2023-04-09T17:38:34.471Z,95708.41
2023-04-09T17:41:01.649Z,95723.41
2023-04-09T17:43:28.795Z,95721.53
2023-04-09T17:45:56.018Z,95724.72
2023-04-09T17:48:23.254Z,95728.97
2023-04-09T17:50:50.342Z,95732.41
2023-04-09T17:53:17.608Z,95733.75
2023-04-09T17:55:48.895Z,95744.16
2023-04-09T17:58:16.503Z,95739.03
2023-04-09T18:00:44.330Z,95735.78
2023-04-09T18:03:12.181Z,95741.69
2023-04-09T18:05:39.710Z,95745.91
2023-04-09T18:08:07.425Z,95748.06
2023-04-09T18:10:34.821Z,95757.16
2023-04-09T18:13:02.000Z,95748.81
2023-04-09T18:15:31.081Z,95745.59
2023-04-09T18:17:59.583Z,95742.63
2023-04-09T18:20:26.910Z,95746.31
2023-04-09T18:23:02.856Z,95742.84
2023-04-09T18:25:30.037Z,95727.03
2023-04-09T18:27:57.059Z,95721.13
2023-04-09T18:30:26.275Z,95717.38
2023-04-09T18:32:53.491Z,95708.25
2023-04-09T18:35:21.876Z,95721.56
2023-04-09T18:37:49.049Z,95714.53
2023-04-09T18:40:17.826Z,95718.97
2023-04-09T18:42:45.140Z,95710.41
2023-04-09T18:45:12.273Z,95710.13
2023-04-09T18:47:40.455Z,95715.94
2023-04-09T18:50:08.033Z,95713.72
2023-04-09T18:52:38.186Z,95710.16
2023-04-09T18:55:05.485Z,95707.47
2023-04-09T18:57:35.696Z,95702.34
2023-04-09T19:00:04.112Z,95705.59
2023-04-09T19:02:31.422Z,95712.53
2023-04-09T19:04:59.170Z,95722.41
2023-04-09T19:07:26.402Z,95731.19
2023-04-09T19:09:53.567Z,95734.09
2023-04-09T19:12:20.935Z,95747.59
2023-04-09T19:14:47.981Z,95755.88
2023-04-09T19:17:15.095Z,95750.72
2023-04-09T19:19:42.737Z,95765.38
2023-04-09T19:22:09.829Z,95774.19
2023-04-09T19:24:37.048Z,95788.88
2023-04-09T19:27:09.947Z,95794.44
2023-04-09T19:29:37.274Z,95794.94
2023-04-09T19:32:04.992Z,95783.63
2023-04-09T19:34:32.151Z,95788.91
2023-04-09T19:36:59.209Z,95793.44
2023-04-09T19:39:26.302Z,95802.72
2023-04-09T19:41:53.342Z,95808.59
2023-04-09T19:44:20.468Z,95811.72
2023-04-09T19:46:47.536Z,95818.38
2023-04-09T19:49:14.649Z,95825.59
2023-04-09T19:51:41.769Z,95820.91
2023-04-09T19:54:10.797Z,95829.97
2023-04-09T19:56:38.286Z,95840.34
2023-04-09T19:59:05.761Z,95842.72
2023-04-09T20:01:33.711Z,95861.69
2023-04-09T20:04:01.074Z,95865.69
2023-04-09T20:06:28.949Z,95870.72
2023-04-09T20:08:56.206Z,95856.19
2023-04-09T20:11:23.335Z,95862.50
2023-04-09T20:13:50.489Z,95874.22
2023-04-09T20:16:17.746Z,95872.28
2023-04-09T20:18:44.863Z,95880.88
2023-04-09T20:21:14.228Z,95888.31
2023-04-09T20:23:41.744Z,95892.53
2023-04-09T20:26:13.369Z,95887.06
2023-04-09T20:28:40.864Z,95900.00
2023-04-09T20:31:08.185Z,95909.59
2023-04-09T20:33:35.607Z,95903.97
2023-04-09T20:36:02.762Z,95919.88
2023-04-09T20:38:30.391Z,95929.22
2023-04-09T20:40:57.631Z,95937.38
2023-04-09T20:43:24.766Z,95944.03
2023-04-09T20:45:52.913Z,95953.56
2023-04-09T20:48:20.348Z,95987.72
2023-04-09T20:50:47.596Z,96005.56
2023-04-09T20:53:15.194Z,96006.84
2023-04-09T20:55:42.351Z,96021.28
2023-04-09T20:58:09.537Z,96028.50
2023-04-09T21:00:36.850Z,96034.31
2023-04-09T21:03:04.172Z,96042.22
2023-04-09T21:05:31.453Z,96040.13
2023-04-09T21:07:58.541Z,96046.16
2023-04-09T21:10:25.669Z,96049.06
2023-04-09T21:12:52.798Z,96037.16
2023-04-09T21:15:19.912Z,96053.59
2023-04-09T21:17:47.083Z,96084.63
2023-04-09T21:20:15.443Z,96098.88
2023-04-09T21:22:42.478Z,96115.22
2023-04-09T21:25:09.665Z,96113.25
2023-04-09T21:27:36.766Z,96110.44
2023-04-09T21:30:03.997Z,96121.59
2023-04-09T21:32:31.397Z,96115.78
2023-04-09T21:34:58.507Z,96131.53
2023-04-09T21:37:28.080Z,96128.84
2023-04-09T21:39:55.270Z,96152.97
2023-04-09T21:42:22.752Z,96171.50
2023-04-09T21:44:49.957Z,96194.19
2023-04-09T21:47:17.097Z,96196.72
2023-04-09T21:49:44.245Z,96202.50
2023-04-09T21:52:15.093Z,96205.97
2023-04-09T21:54:43.288Z,96202.78
2023-04-09T21:57:10.894Z,96244.97
2023-04-09T21:59:38.039Z,96250.19
2023-04-09T22:02:05.233Z,96265.72
2023-04-09T22:04:32.783Z,96277.78
2023-04-09T22:06:59.991Z,96297.25
2023-04-09T22:09:27.264Z,96304.84
2023-04-09T22:11:54.763Z,96300.69
2023-04-09T22:14:21.811Z,96301.41
2023-04-09T22:16:48.914Z,96306.94
2023-04-09T22:19:16.590Z,96322.13
2023-04-09T22:21:43.732Z,96331.94
2023-04-09T22:24:11.288Z,96339.13
2023-04-09T22:26:40.880Z,96342.09
2023-04-09T22:29:08.279Z,96356.28
2023-04-09T22:31:35.430Z,96351.91
2023-04-09T22:34:17.131Z,96397.84
2023-04-09T22:36:47.680Z,96399.69
2023-04-09T22:39:14.867Z,96390.00
2023-04-09T22:41:41.961Z,96410.84
2023-04-09T22:44:09.686Z,96416.25
2023-04-09T22:46:37.179Z,96429.97
2023-04-09T22:49:05.785Z,96450.19
2023-04-09T22:51:34.684Z,96446.69
2023-04-09T22:54:02.274Z,96454.25
2023-04-09T22:56:31.584Z,96457.13
2023-04-09T22:58:59.140Z,96469.41
2023-04-09T23:01:26.608Z,96477.41
2023-04-09T23:03:53.954Z,96477.66
2023-04-09T23:06:22.378Z,96471.63
2023-04-09T23:08:49.654Z,96491.66
2023-04-09T23:11:16.786Z,96500.41
2023-04-09T23:13:43.864Z,96495.53
2023-04-09T23:16:11.370Z,96510.94
2023-04-09T23:18:38.454Z,96497.78
2023-04-09T23:21:06.956Z,96523.72
2023-04-09T23:23:34.342Z,96548.44
2023-04-09T23:26:01.769Z,96551.97
2023-04-09T23:28:29.319Z,96563.84
2023-04-09T23:30:56.877Z,96566.50
2023-04-09T23:33:24.021Z,96585.88
2023-04-09T23:35:51.262Z,96588.38
2023-04-09T23:38:18.498Z,96593.69
2023-04-09T23:40:47.348Z,96609.25
2023-04-09T23:43:14.536Z,96597.78
2023-04-09T23:45:42.644Z,96619.31
2023-04-09T23:48:10.760Z,96619.06
2023-04-09T23:50:39.251Z,96612.16
2023-04-09T23:53:06.637Z,96604.47
2023-04-09T23:55:37.869Z,96627.97
2023-04-09T23:58:05.509Z,96652.66
